Time;durP1;ratioP1;P1;durP2;ratioP2;P2;SDS_P1;SDS_P2;PMS_P1;PMS_P2;Temp;Humidity;BMP_temperature;BMP_pressure;BME280_temperature;BME280_humidity;BME280_pressure;Samples;Min_cycle;Max_cycle;Signal;HPM_P1;HPM_P2
2023/09/27 00:00:18;;;;;;;6.13;3.20;;;18.00;99.90;;;;;;5069401;28;20385;-39
2023/09/27 00:02:44;;;;;;;6.05;3.63;;;18.00;99.90;;;;;;5071816;28;20468;-39
2023/09/27 00:05:11;;;;;;;5.07;3.33;;;18.00;99.90;;;;;;5072902;28;20048;-40
2023/09/27 00:07:38;;;;;;;4.47;3.70;;;18.00;99.90;;;;;;5071384;28;20075;-38
2023/09/27 00:10:05;;;;;;;3.15;2.78;;;18.00;99.90;;;;;;5070330;28;20465;-40
2023/09/27 00:12:32;;;;;;;4.75;3.30;;;17.90;99.90;;;;;;5074940;28;20051;-39
2023/09/27 00:14:58;;;;;;;4.43;2.83;;;17.90;99.90;;;;;;5075194;28;20104;-41
2023/09/27 00:17:24;;;;;;;5.32;4.05;;;17.90;99.90;;;;;;5075104;28;20433;-39
2023/09/27 00:19:50;;;;;;;8.32;3.20;;;17.90;99.90;;;;;;5073515;28;20024;-38
2023/09/27 00:22:15;;;;;;;8.50;4.30;;;17.90;99.90;;;;;;5074698;28;20142;-39
2023/09/27 00:24:41;;;;;;;17.90;4.60;;;17.90;99.90;;;;;;5074435;28;20490;-38
2023/09/27 00:27:07;;;;;;;3.67;3.35;;;17.90;99.90;;;;;;5073488;28;20028;-39
2023/09/27 00:29:34;;;;;;;5.85;4.00;;;17.90;99.90;;;;;;5074132;28;20119;-39
2023/09/27 00:32:00;;;;;;;11.13;4.90;;;17.90;99.90;;;;;;5073351;28;20024;-40
2023/09/27 00:34:25;;;;;;;5.43;3.75;;;17.90;99.90;;;;;;5073427;28;20101;-40
2023/09/27 00:36:51;;;;;;;5.00;3.85;;;17.90;99.90;;;;;;5074029;28;20472;-39
2023/09/27 00:39:17;;;;;;;5.50;3.50;;;17.90;99.90;;;;;;5074195;28;20515;-42
2023/09/27 00:41:43;;;;;;;4.68;3.53;;;17.90;99.90;;;;;;5074178;28;20482;-48
2023/09/27 00:44:08;;;;;;;4.47;3.42;;;17.90;99.90;;;;;;5074092;28;20012;-50
2023/09/27 00:46:34;;;;;;;6.00;3.70;;;17.90;99.90;;;;;;5074465;28;20035;-51
2023/09/27 00:49:00;;;;;;;5.43;3.72;;;17.90;99.90;;;;;;5073302;28;20095;-47
2023/09/27 00:51:26;;;;;;;4.20;3.80;;;17.80;99.90;;;;;;5074337;28;20032;-49
2023/09/27 00:53:54;;;;;;;6.82;3.75;;;17.80;99.90;;;;;;5073707;28;20031;-50
2023/09/27 00:56:20;;;;;;;;;;;17.80;99.90;;;;;;5074404;28;20036;-47
2023/09/27 00:58:46;;;;;;;5.80;3.70;;;17.80;99.90;;;;;;5073648;28;19908;-51
2023/09/27 01:01:12;;;;;;;6.97;3.80;;;17.80;99.90;;;;;;5073867;28;20039;-50
2023/09/27 01:03:38;;;;;;;6.28;4.35;;;17.80;99.90;;;;;;5072948;28;20472;-52
2023/09/27 01:06:04;;;;;;;6.47;4.72;;;17.80;99.90;;;;;;5073044;28;20040;-52
2023/09/27 01:08:30;;;;;;;5.28;3.90;;;17.70;99.90;;;;;;5073498;28;20517;-50
2023/09/27 01:10:55;;;;;;;7.07;3.83;;;17.70;99.90;;;;;;5072848;28;20028;-38
2023/09/27 01:13:21;;;;;;;5.22;3.70;;;17.80;99.90;;;;;;5073512;28;20060;-39
2023/09/27 01:15:47;;;;;;;4.65;3.65;;;17.70;99.90;;;;;;5073690;28;20032;-43
2023/09/27 01:18:13;;;;;;;4.65;3.17;;;17.70;99.90;;;;;;5073256;28;20481;-38
2023/09/27 01:20:39;;;;;;;8.20;4.05;;;17.60;99.90;;;;;;5072602;28;20031;-39
2023/09/27 01:23:05;;;;;;;6.40;3.80;;;17.50;99.90;;;;;;5073185;28;20075;-40
2023/09/27 01:25:40;;;;;;;6.45;3.85;;;17.50;99.90;;;;;;5073746;28;20077;-39
2023/09/27 01:28:08;;;;;;;5.28;3.10;;;17.40;99.90;;;;;;5072780;28;20085;-39
2023/09/27 01:30:33;;;;;;;;;;;17.30;99.90;;;;;;5073803;28;20028;-40
2023/09/27 01:33:06;;;;;;;8.13;3.65;;;17.30;99.90;;;;;;5073198;28;19908;-40
2023/09/27 01:35:40;;;;;;;4.15;3.75;;;17.20;99.90;;;;;;5072585;28;20029;-38
2023/09/27 01:38:07;;;;;;;5.43;4.20;;;17.20;99.90;;;;;;5072925;28;20032;-40
2023/09/27 01:40:36;;;;;;;11.55;4.20;;;17.10;99.90;;;;;;5073270;28;20039;-39
2023/09/27 01:43:03;;;;;;;4.88;3.75;;;17.10;99.90;;;;;;5071833;28;20038;-40
2023/09/27 01:45:30;;;;;;;7.72;5.00;;;17.00;99.90;;;;;;5073173;28;20122;-40
2023/09/27 01:47:56;;;;;;;11.43;4.00;;;17.00;99.90;;;;;;5073099;28;20033;-41
2023/09/27 01:50:24;;;;;;;6.32;4.03;;;17.00;99.90;;;;;;5071987;28;20024;-38
2023/09/27 01:52:54;;;;;;;5.65;4.15;;;17.00;99.90;;;;;;5073047;28;20024;-39
2023/09/27 01:55:21;;;;;;;8.30;4.50;;;17.00;99.90;;;;;;5073052;28;20024;-38
2023/09/27 01:57:46;;;;;;;6.38;4.45;;;16.90;99.90;;;;;;5073008;28;20033;-39
2023/09/27 02:00:14;;;;;;;6.22;4.32;;;16.90;99.90;;;;;;5068020;28;20474;-40
2023/09/27 02:02:43;;;;;;;5.82;4.40;;;16.90;99.90;;;;;;5067709;28;20028;-39
2023/09/27 02:05:09;;;;;;;7.55;4.70;;;16.90;99.90;;;;;;5071759;28;20035;-39
2023/09/27 02:07:39;;;;;;;6.32;4.38;;;16.90;99.90;;;;;;5072666;28;20036;-52
2023/09/27 02:10:09;;;;;;;6.38;4.22;;;16.80;99.90;;;;;;5073157;28;20074;-51
2023/09/27 02:12:38;;;;;;;8.82;4.00;;;16.80;99.90;;;;;;5072908;28;20025;-51
2023/09/27 02:15:05;;;;;;;8.90;4.80;;;16.80;99.90;;;;;;5072560;28;20024;-50
2023/09/27 02:17:31;;;;;;;6.03;4.33;;;16.70;99.90;;;;;;5072828;28;20041;-51
2023/09/27 02:19:56;;;;;;;6.57;4.78;;;16.70;99.90;;;;;;5071709;28;20024;-40
2023/09/27 02:22:23;;;;;;;6.00;4.47;;;16.70;99.90;;;;;;5072032;28;20032;-39
2023/09/27 02:24:48;;;;;;;6.38;4.65;;;16.70;99.90;;;;;;5072022;28;20024;-39
2023/09/27 02:27:14;;;;;;;8.10;5.18;;;16.70;99.90;;;;;;5072632;28;20050;-40
2023/09/27 02:29:42;;;;;;;12.20;5.68;;;16.60;99.90;;;;;;5072575;28;20512;-40
2023/09/27 02:32:07;;;;;;;;;;;16.60;99.90;;;;;;5072980;28;20016;-41
2023/09/27 02:34:37;;;;;;;6.07;4.70;;;16.50;99.90;;;;;;5072537;28;19953;-40
2023/09/27 02:37:03;;;;;;;7.65;5.28;;;16.50;99.90;;;;;;5072140;28;20393;-39
2023/09/27 02:39:29;;;;;;;7.95;5.15;;;16.50;99.90;;;;;;5071378;28;20501;-43
2023/09/27 02:41:57;;;;;;;6.35;4.55;;;16.50;99.90;;;;;;5072526;28;20066;-40
2023/09/27 02:44:24;;;;;;;6.43;4.95;;;16.50;99.90;;;;;;5072801;28;20410;-38
2023/09/27 02:46:52;;;;;;;9.90;4.80;;;16.40;99.90;;;;;;5072433;28;20396;-44
2023/09/27 02:49:18;;;;;;;10.45;5.80;;;16.40;99.90;;;;;;5072181;28;20028;-38
2023/09/27 02:51:44;;;;;;;8.75;5.18;;;16.30;99.90;;;;;;5071329;28;20016;-38
2023/09/27 02:54:10;;;;;;;7.78;4.97;;;16.30;99.90;;;;;;5072378;28;20028;-41
2023/09/27 02:56:36;;;;;;;10.70;5.07;;;16.20;99.90;;;;;;5075238;28;20121;-38
2023/09/27 02:59:02;;;;;;;7.30;5.15;;;16.20;99.90;;;;;;5075522;28;20070;-38
2023/09/27 03:01:29;;;;;;;7.78;5.40;;;16.20;99.90;;;;;;5074874;28;20549;-38
2023/09/27 03:03:55;;;;;;;10.97;5.70;;;16.10;99.90;;;;;;5076085;28;20062;-38
2023/09/27 03:06:21;;;;;;;10.03;6.27;;;16.10;99.90;;;;;;5074650;28;20135;-42
2023/09/27 03:08:48;;;;;;;7.00;5.20;;;16.10;99.90;;;;;;5075957;28;20056;-38
2023/09/27 03:11:14;;;;;;;11.50;5.65;;;16.10;99.90;;;;;;5076091;28;20037;-40
2023/09/27 03:13:43;;;;;;;5.88;4.93;;;16.00;99.90;;;;;;5075918;28;20544;-38
2023/09/27 03:16:09;;;;;;;8.85;5.57;;;16.00;99.90;;;;;;5074559;28;20056;-39
2023/09/27 03:18:35;;;;;;;7.20;5.38;;;16.00;99.90;;;;;;5075987;28;20129;-38
2023/09/27 03:21:00;;;;;;;8.05;4.88;;;15.90;99.90;;;;;;5074600;28;20111;-50
2023/09/27 03:23:27;;;;;;;10.25;5.95;;;15.90;99.90;;;;;;5075772;28;20104;-50
2023/09/27 03:25:53;;;;;;;10.82;6.25;;;16.00;99.90;;;;;;5075667;28;20504;-46
2023/09/27 03:28:19;;;;;;;8.27;5.75;;;16.00;99.90;;;;;;5074515;28;20031;-52
2023/09/27 03:30:47;;;;;;;8.95;5.22;;;15.90;99.90;;;;;;5075515;28;22052;-51
2023/09/27 03:33:12;;;;;;;8.65;5.75;;;15.90;99.90;;;;;;5075410;28;20554;-50
2023/09/27 03:35:38;;;;;;;6.55;4.47;;;15.90;99.90;;;;;;5074408;28;20012;-51
2023/09/27 03:38:05;;;;;;;6.03;4.93;;;15.80;99.90;;;;;;5075452;28;20048;-51
2023/09/27 03:40:31;;;;;;;9.02;5.15;;;15.80;99.90;;;;;;5075497;28;20098;-49
2023/09/27 03:42:57;;;;;;;8.02;5.72;;;15.80;99.90;;;;;;5075226;28;20537;-51
2023/09/27 03:45:23;;;;;;;8.05;5.78;;;15.80;99.90;;;;;;5075714;28;20060;-50
2023/09/27 03:47:48;;;;;;;7.88;5.50;;;15.80;99.90;;;;;;5073747;28;20028;-47
2023/09/27 03:50:14;;;;;;;6.15;5.03;;;15.80;99.90;;;;;;5075391;28;20385;-51
2023/09/27 03:52:41;;;;;;;8.45;5.95;;;15.80;99.90;;;;;;5074476;28;20096;-52
2023/09/27 03:55:08;;;;;;;10.52;6.78;;;15.70;99.90;;;;;;5075610;28;20028;-50
2023/09/27 03:57:34;;;;;;;10.13;6.30;;;15.80;99.90;;;;;;5075209;28;20397;-50
2023/09/27 04:00:00;;;;;;;8.88;7.00;;;15.80;99.90;;;;;;5072192;28;20021;-42
2023/09/27 04:02:26;;;;;;;10.02;6.78;;;15.80;99.90;;;;;;5071660;28;20052;-39
2023/09/27 04:04:51;;;;;;;12.00;6.03;;;15.80;99.90;;;;;;5075116;28;20024;-38
2023/09/27 04:07:20;;;;;;;13.07;6.57;;;15.80;99.90;;;;;;5073399;28;20110;-38
2023/09/27 04:09:47;;;;;;;7.47;5.45;;;15.80;99.90;;;;;;5075339;28;20516;-42
2023/09/27 04:12:13;;;;;;;8.63;5.80;;;15.80;99.90;;;;;;5074688;28;20112;-40
2023/09/27 04:14:39;;;;;;;7.95;6.32;;;15.80;99.90;;;;;;5074963;28;20024;-38
2023/09/27 04:17:05;;;;;;;9.43;6.55;;;15.80;99.90;;;;;;5075138;28;20489;-37
2023/09/27 04:19:31;;;;;;;7.95;6.07;;;15.70;99.90;;;;;;5074842;28;20059;-38
2023/09/27 04:21:57;;;;;;;13.05;6.90;;;15.70;99.90;;;;;;5073091;28;20029;-38
2023/09/27 04:24:23;;;;;;;10.75;6.82;;;15.70;99.90;;;;;;5074636;28;20115;-38
2023/09/27 04:26:49;;;;;;;12.50;6.85;;;15.80;99.90;;;;;;5074436;28;20561;-38
2023/09/27 04:29:15;;;;;;;13.18;6.80;;;15.70;99.90;;;;;;5074605;28;20025;-39
2023/09/27 04:31:40;;;;;;;16.35;8.13;;;15.70;99.90;;;;;;5074319;28;20028;-37
2023/09/27 04:34:06;;;;;;;9.23;6.43;;;15.70;99.90;;;;;;5074524;28;20429;-39
2023/09/27 04:36:32;;;;;;;13.40;7.43;;;15.60;99.90;;;;;;5073653;28;20496;-38
2023/09/27 04:38:58;;;;;;;7.78;5.78;;;15.60;99.90;;;;;;5073200;28;20048;-41
2023/09/27 04:41:24;;;;;;;8.75;5.82;;;15.60;99.90;;;;;;5072240;28;20603;-40
2023/09/27 04:43:49;;;;;;;11.50;7.90;;;15.60;99.90;;;;;;5074523;28;20034;-43
2023/09/27 04:46:19;;;;;;;10.13;6.43;;;15.60;99.90;;;;;;5072026;28;20032;-51
2023/09/27 04:48:45;;;;;;;9.65;6.47;;;15.60;99.90;;;;;;5074046;28;20392;-46
2023/09/27 04:51:10;;;;;;;9.77;6.90;;;15.60;99.90;;;;;;5072560;28;20111;-48
2023/09/27 04:53:37;;;;;;;9.07;6.57;;;15.60;99.90;;;;;;5065835;28;20105;-48
2023/09/27 04:56:12;;;;;;;15.70;8.15;;;15.50;99.90;;;;;;5054059;28;20116;-51
2023/09/27 04:58:44;;;;;;;10.27;6.63;;;15.50;99.90;;;;;;5065830;28;20020;-38
2023/09/27 05:01:10;;;;;;;7.90;5.78;;;15.50;99.90;;;;;;5073962;28;20032;-37
2023/09/27 05:03:37;;;;;;;8.67;5.77;;;15.40;99.90;;;;;;5073390;28;20369;-38
2023/09/27 05:06:03;;;;;;;7.30;4.60;;;15.40;99.90;;;;;;5071925;28;20519;-41
2023/09/27 05:08:29;;;;;;;8.07;5.78;;;15.40;99.90;;;;;;5072203;28;20043;-39
2023/09/27 05:10:56;;;;;;;11.55;6.53;;;15.40;99.90;;;;;;5062444;28;20544;-39
2023/09/27 05:13:22;;;;;;;13.13;6.88;;;15.30;99.90;;;;;;5073776;28;20099;-51
2023/09/27 05:15:48;;;;;;;9.93;5.97;;;15.30;99.90;;;;;;5072968;28;20027;-48
2023/09/27 05:18:14;;;;;;;15.15;8.27;;;15.30;99.90;;;;;;5061407;28;20073;-50
2023/09/27 05:20:40;;;;;;;13.75;7.50;;;15.30;99.90;;;;;;5062113;28;20419;-48
2023/09/27 05:23:05;;;;;;;16.17;7.47;;;15.30;99.90;;;;;;5072949;28;20083;-53
2023/09/27 05:25:31;;;;;;;13.43;7.53;;;15.30;99.90;;;;;;5061345;28;20059;-52
2023/09/27 05:27:57;;;;;;;10.80;8.10;;;15.30;99.90;;;;;;5053420;28;20385;-49
2023/09/27 05:30:23;;;;;;;15.05;8.27;;;15.30;99.90;;;;;;5053405;28;20028;-47
2023/09/27 05:32:49;;;;;;;13.52;7.82;;;15.40;99.90;;;;;;5066936;28;20521;-52
2023/09/27 05:35:14;;;;;;;14.48;8.63;;;15.40;99.90;;;;;;5073358;28;20500;-50
2023/09/27 05:37:42;;;;;;;14.43;8.43;;;15.40;99.90;;;;;;5064270;28;20477;-50
2023/09/27 05:40:10;;;;;;;12.43;8.27;;;15.50;99.90;;;;;;5057966;28;20029;-40
2023/09/27 05:42:36;;;;;;;15.88;8.85;;;15.50;99.90;;;;;;5065545;28;20495;-39
2023/09/27 05:45:03;;;;;;;12.32;8.80;;;15.50;99.90;;;;;;5073417;28;20029;-44
2023/09/27 05:47:29;;;;;;;9.80;7.10;;;15.50;99.90;;;;;;5073396;28;20030;-42
2023/09/27 05:49:54;;;;;;;10.48;7.00;;;15.50;99.90;;;;;;5071857;28;20017;-41
2023/09/27 05:52:20;;;;;;;15.55;9.48;;;15.50;99.90;;;;;;5071924;28;20435;-50
2023/09/27 05:54:46;;;;;;;12.15;7.70;;;15.50;99.90;;;;;;5073081;28;20028;-50
2023/09/27 05:57:12;;;;;;;11.10;8.75;;;15.50;99.90;;;;;;5057258;28;20048;-52
2023/09/27 05:59:41;;;;;;;13.90;9.48;;;15.60;99.90;;;;;;5053024;28;20032;-45
2023/09/27 06:02:07;;;;;;;17.13;8.43;;;15.60;99.90;;;;;;5072858;28;20119;-44
2023/09/27 06:04:33;;;;;;;15.98;8.75;;;15.60;99.90;;;;;;5064156;28;20499;-39
2023/09/27 06:06:59;;;;;;;10.27;7.60;;;15.70;99.90;;;;;;5071862;28;20064;-39
2023/09/27 06:09:24;;;;;;;10.32;7.95;;;15.70;99.90;;;;;;5070121;28;20016;-49
2023/09/27 06:11:51;;;;;;;15.52;8.77;;;15.70;99.90;;;;;;5072787;28;20025;-53
2023/09/27 06:14:16;;;;;;;14.45;8.40;;;15.70;99.90;;;;;;5072050;28;20029;-50
2023/09/27 06:16:44;;;;;;;16.95;8.57;;;15.80;99.90;;;;;;5072846;28;20035;-51
2023/09/27 06:19:11;;;;;;;16.90;7.70;;;15.80;99.90;;;;;;5072531;28;20032;-52
2023/09/27 06:24:21;;;;;;;8.57;7.45;;;15.80;99.90;;;;;;5052349;28;20114;-51
2023/09/27 06:26:47;;;;;;;11.50;7.88;;;15.80;99.90;;;;;;5052852;28;20072;-53
2023/09/27 06:29:13;;;;;;;11.98;8.40;;;15.80;99.90;;;;;;5052641;28;20025;-53
2023/09/27 06:31:38;;;;;;;15.75;8.45;;;15.90;99.90;;;;;;5056299;28;20466;-52
2023/09/27 06:34:04;;;;;;;11.70;7.63;;;15.90;99.90;;;;;;5056995;28;20025;-52
2023/09/27 06:36:34;;;;;;;11.02;7.22;;;15.90;99.90;;;;;;5073911;28;20497;-52
2023/09/27 06:39:00;;;;;;;14.48;8.23;;;16.00;99.90;;;;;;5076473;28;20028;-52
2023/09/27 06:41:26;;;;;;;13.82;8.38;;;16.00;99.90;;;;;;5063141;28;20035;-51
2023/09/27 06:43:53;;;;;;;12.25;7.80;;;16.10;99.90;;;;;;5062215;28;20037;-51
2023/09/27 06:46:19;;;;;;;16.40;9.07;;;16.10;99.90;;;;;;5065448;28;20028;-50
2023/09/27 06:48:45;;;;;;;10.48;8.30;;;16.10;99.90;;;;;;5075397;28;20082;-53
2023/09/27 06:51:13;;;;;;;16.75;8.40;;;16.20;99.90;;;;;;5074688;28;20017;-52
2023/09/27 06:53:39;;;;;;;13.52;8.80;;;16.20;99.90;;;;;;5076661;28;20103;-54
2023/09/27 06:56:06;;;;;;;14.00;9.02;;;16.20;99.90;;;;;;5073548;28;20071;-50
2023/09/27 06:58:32;;;;;;;11.38;8.50;;;16.30;99.90;;;;;;5065751;28;20028;-53
2023/09/27 07:00:58;;;;;;;18.15;9.52;;;16.30;99.90;;;;;;5076518;28;20021;-53
2023/09/27 07:03:24;;;;;;;12.38;8.40;;;16.30;99.90;;;;;;5069871;28;20107;-54
2023/09/27 07:05:54;;;;;;;10.75;7.57;;;16.30;99.90;;;;;;5075575;28;20485;-53
2023/09/27 07:08:20;;;;;;;24.25;9.63;;;16.30;99.90;;;;;;5075472;28;20063;-51
2023/09/27 07:10:47;;;;;;;15.57;9.25;;;16.30;99.90;;;;;;5075543;28;20033;-53
2023/09/27 07:13:13;;;;;;;10.60;8.25;;;16.30;99.90;;;;;;5074921;28;20029;-52
2023/09/27 07:15:57;;;;;;;15.38;9.95;;;16.40;99.90;;;;;;5059786;28;20021;-53
2023/09/27 07:18:23;;;;;;;12.82;9.27;;;16.40;99.90;;;;;;5069591;28;20103;-51
2023/09/27 07:20:50;;;;;;;14.65;8.73;;;16.50;99.90;;;;;;5071436;28;20592;-53
2023/09/27 07:23:16;;;;;;;13.88;9.05;;;16.60;99.90;;;;;;5075129;28;20025;-54
2023/09/27 07:25:42;;;;;;;20.15;9.40;;;16.70;99.90;;;;;;5075659;28;20089;-50
2023/09/27 07:28:08;;;;;;;16.42;9.23;;;16.70;99.90;;;;;;5075487;28;20029;-55
2023/09/27 07:30:34;;;;;;;16.38;9.32;;;16.80;99.90;;;;;;5074000;28;20520;-53
2023/09/27 07:33:00;;;;;;;17.50;9.50;;;16.90;99.90;;;;;;5074413;28;20126;-52
2023/09/27 07:35:32;;;;;;;22.98;9.82;;;16.90;99.90;;;;;;5073121;28;20059;-53
2023/09/27 07:37:58;;;;;;;21.08;9.77;;;17.00;99.90;;;;;;5073076;28;20027;-51
2023/09/27 07:40:24;;;;;;;18.40;9.52;;;17.10;99.90;;;;;;5075493;28;20382;-52
2023/09/27 07:42:51;;;;;;;19.10;9.02;;;17.10;99.90;;;;;;5074879;28;20028;-50
2023/09/27 07:45:23;;;;;;;12.23;8.18;;;17.20;99.90;;;;;;5069758;28;20516;-51
2023/09/27 07:47:53;;;;;;;22.90;9.45;;;17.30;99.90;;;;;;5074558;28;20028;-51
2023/09/27 07:50:31;;;;;;;16.52;8.68;;;17.40;99.90;;;;;;5075319;28;20546;-56
2023/09/27 07:52:58;;;;;;;15.18;9.95;;;17.40;99.90;;;;;;5075292;28;20067;-48
2023/09/27 07:55:24;;;;;;;;;;;17.60;99.90;;;;;;5066696;28;20394;-41
2023/09/27 07:57:52;;;;;;;14.85;8.82;;;17.70;99.90;;;;;;5069575;28;19909;-42
2023/09/27 08:00:19;;;;;;;13.85;9.57;;;17.80;99.90;;;;;;5073188;28;20048;-39
2023/09/27 08:02:50;;;;;;;17.70;10.50;;;17.90;99.90;;;;;;5074986;28;20078;-40
2023/09/27 08:05:17;;;;;;;19.17;10.30;;;18.10;99.90;;;;;;5071755;28;20032;-42
2023/09/27 08:07:46;;;;;;;17.67;10.48;;;18.20;99.90;;;;;;5060850;28;20632;-43
2023/09/27 08:10:12;;;;;;;20.45;10.43;;;18.30;99.90;;;;;;5059493;28;20027;-39
2023/09/27 08:12:39;;;;;;;17.88;10.43;;;18.40;99.90;;;;;;5072663;28;20103;-45
2023/09/27 08:15:06;;;;;;;17.75;9.93;;;18.40;99.90;;;;;;5054863;28;20017;-42
2023/09/27 08:17:32;;;;;;;15.57;9.73;;;18.50;99.90;;;;;;5055350;28;20024;-42
2023/09/27 08:20:07;;;;;;;15.07;8.35;;;18.60;99.90;;;;;;5064533;28;20054;-41
2023/09/27 08:22:34;;;;;;;14.77;8.80;;;18.70;99.90;;;;;;5066559;28;20033;-41
2023/09/27 08:25:00;;;;;;;14.00;8.45;;;18.80;99.90;;;;;;5074593;28;20029;-44
2023/09/27 08:27:26;;;;;;;17.60;9.85;;;18.90;99.90;;;;;;5074177;28;20501;-40
2023/09/27 08:29:52;;;;;;;14.32;8.65;;;19.10;99.90;;;;;;5074460;28;20012;-42
2023/09/27 08:32:18;;;;;;;18.58;8.75;;;19.20;99.90;;;;;;5063822;28;20100;-41
2023/09/27 08:34:45;;;;;;;16.23;8.10;;;19.20;99.90;;;;;;5059762;28;20052;-41
2023/09/27 08:37:11;;;;;;;17.48;7.03;;;19.30;99.90;;;;;;5054298;28;20505;-40
2023/09/27 08:39:38;;;;;;;11.18;7.95;;;19.30;99.90;;;;;;5066385;28;20032;-40
2023/09/27 08:42:04;;;;;;;16.52;8.32;;;19.30;99.90;;;;;;5074230;28;20017;-40
2023/09/27 08:44:31;;;;;;;18.92;8.38;;;19.30;99.90;;;;;;5056776;28;20036;-43
2023/09/27 08:46:57;;;;;;;11.43;7.88;;;19.30;99.90;;;;;;5054044;28;20378;-42
2023/09/27 08:49:24;;;;;;;9.85;7.18;;;19.40;99.90;;;;;;5055113;28;20071;-40
2023/09/27 08:51:51;;;;;;;16.95;9.23;;;19.40;99.90;;;;;;5057280;28;20017;-40
2023/09/27 08:54:19;;;;;;;17.23;8.05;;;19.40;99.90;;;;;;5070301;28;20489;-53
2023/09/27 08:56:48;;;;;;;;;;;19.40;99.90;;;;;;5064254;28;20106;-52
2023/09/27 08:59:15;;;;;;;11.90;7.13;;;19.50;99.90;;;;;;5057376;28;19916;-51
2023/09/27 09:01:43;;;;;;;13.80;8.10;;;19.50;99.90;;;;;;5073888;28;20477;-52
2023/09/27 09:04:09;;;;;;;11.43;8.73;;;19.50;99.90;;;;;;5070886;28;20386;-51
2023/09/27 09:06:35;;;;;;;11.60;6.90;;;19.50;99.90;;;;;;5072760;28;20111;-52
2023/09/27 09:09:10;;;;;;;16.23;7.55;;;19.50;99.90;;;;;;5071843;28;20486;-50
2023/09/27 09:11:47;;;;;;;13.20;8.63;;;19.40;99.90;;;;;;5059899;28;20060;-52
2023/09/27 09:14:17;;;;;;;14.02;7.78;;;19.40;99.90;;;;;;5060584;28;20496;-50
2023/09/27 09:16:50;;;;;;;12.48;6.70;;;19.50;99.90;;;;;;5073828;28;20033;-53
2023/09/27 09:19:24;;;;;;;12.30;7.45;;;19.40;99.90;;;;;;5071727;28;20109;-52
2023/09/27 09:22:08;;;;;;;10.65;7.60;;;19.40;99.90;;;;;;5053817;28;20025;-51
2023/09/27 09:24:35;;;;;;;18.48;8.57;;;19.40;99.90;;;;;;5052228;28;20494;-53
2023/09/27 09:27:09;;;;;;;9.23;6.25;;;19.40;99.90;;;;;;5070650;28;20504;-50
2023/09/27 09:29:46;;;;;;;17.67;8.30;;;19.40;99.90;;;;;;5067709;28;20048;-50
2023/09/27 09:32:21;;;;;;;;;;;19.40;99.90;;;;;;5053868;28;20371;-52
2023/09/27 09:34:54;;;;;;;12.45;7.30;;;19.50;99.90;;;;;;5053610;28;19915;-52
2023/09/27 09:37:23;;;;;;;13.57;8.93;;;19.50;99.90;;;;;;5069285;28;20064;-52
2023/09/27 09:39:50;;;;;;;27.30;8.45;;;19.50;99.90;;;;;;5064337;28;20037;-51
2023/09/27 09:42:33;;;;;;;17.08;8.35;;;19.60;99.90;;;;;;5071739;28;20028;-48
2023/09/27 09:45:06;;;;;;;16.33;8.70;;;19.60;99.90;;;;;;5053095;28;20036;-52
2023/09/27 09:47:39;;;;;;;13.15;7.43;;;19.60;99.90;;;;;;5054240;28;20159;-48
2023/09/27 09:50:16;;;;;;;9.60;7.82;;;19.60;99.90;;;;;;5053002;28;20017;-54
2023/09/27 09:52:50;;;;;;;19.13;7.13;;;19.70;99.90;;;;;;5054370;28;20021;-48
2023/09/27 09:55:20;;;;;;;13.73;7.57;;;19.80;99.90;;;;;;5073056;28;20024;-49
2023/09/27 09:57:47;;;;;;;12.43;7.55;;;19.90;99.90;;;;;;5073032;28;20050;-51
2023/09/27 10:00:25;;;;;;;19.52;7.43;;;20.00;99.90;;;;;;5073301;28;20028;-51
2023/09/27 10:02:59;;;;;;;15.30;8.15;;;20.10;99.90;;;;;;5070414;28;20017;-51
2023/09/27 10:05:28;;;;;;;16.75;8.05;;;20.10;99.90;;;;;;5071468;28;20035;-51
2023/09/27 10:07:54;;;;;;;14.00;8.18;;;20.20;99.90;;;;;;5072683;28;20047;-53
2023/09/27 10:10:21;;;;;;;12.75;8.18;;;20.30;99.90;;;;;;5072687;28;20056;-52
2023/09/27 10:12:50;;;;;;;14.45;7.72;;;20.30;99.90;;;;;;5072050;28;20519;-51
2023/09/27 10:15:18;;;;;;;14.70;8.05;;;20.40;99.90;;;;;;5072567;28;20031;-51
2023/09/27 10:17:45;;;;;;;16.85;8.80;;;20.40;99.90;;;;;;5072552;28;20434;-52
2023/09/27 10:20:22;;;;;;;12.52;7.75;;;20.50;99.90;;;;;;5071887;28;20393;-51
2023/09/27 10:22:50;;;;;;;16.10;7.43;;;20.70;99.90;;;;;;5072238;28;20047;-51
2023/09/27 10:25:26;;;;;;;14.18;8.02;;;21.00;99.90;;;;;;5072663;28;20381;-52
2023/09/27 10:28:12;;;;;;;14.40;7.90;;;21.10;99.90;;;;;;5072845;28;20456;-48
2023/09/27 10:30:40;;;;;;;13.80;7.13;;;21.20;99.90;;;;;;5072949;28;20020;-42
2023/09/27 10:33:15;;;;;;;14.82;8.52;;;21.20;99.90;;;;;;5070553;28;20199;-42
2023/09/27 10:35:45;;;;;;;11.30;7.85;;;21.30;99.90;;;;;;5070936;28;20552;-40
2023/09/27 10:38:12;;;;;;;13.13;7.53;;;21.30;99.90;;;;;;5060034;28;20108;-40
2023/09/27 10:40:45;;;;;;;21.20;9.07;;;21.20;99.90;;;;;;5071227;28;20043;-45
2023/09/27 10:43:34;;;;;;;11.88;8.15;;;21.20;99.90;;;;;;5072389;28;20020;-44
2023/09/27 10:46:00;;;;;;;16.67;8.65;;;21.20;99.90;;;;;;5068910;28;20043;-39
2023/09/27 10:48:26;;;;;;;13.65;7.75;;;21.20;99.90;;;;;;5062045;28;20025;-44
2023/09/27 10:50:52;;;;;;;17.98;8.63;;;21.20;99.90;;;;;;5068958;28;20409;-39
2023/09/27 10:53:18;;;;;;;14.80;8.80;;;21.10;99.90;;;;;;5065122;28;20046;-38
2023/09/27 10:55:44;;;;;;;15.55;9.23;;;21.20;99.90;;;;;;5071158;28;20033;-41
2023/09/27 10:58:15;;;;;;;12.48;8.70;;;21.20;99.90;;;;;;5072384;28;20485;-42
2023/09/27 11:00:57;;;;;;;11.23;8.18;;;21.30;99.90;;;;;;5071774;28;20028;-40
2023/09/27 11:03:29;;;;;;;15.52;8.57;;;21.50;99.90;;;;;;5061371;28;20124;-39
2023/09/27 11:06:15;;;;;;;15.15;9.23;;;21.70;99.90;;;;;;5061729;28;20067;-42
2023/09/27 11:08:41;;;;;;;17.30;7.72;;;21.90;99.90;;;;;;5072121;28;20078;-40
2023/09/27 11:11:08;;;;;;;13.27;7.22;;;22.20;99.90;;;;;;5072047;28;20059;-40
2023/09/27 11:13:35;;;;;;;11.85;8.57;;;22.50;99.90;;;;;;5071700;28;20028;-40
2023/09/27 11:16:14;;;;;;;11.70;7.25;;;22.70;99.90;;;;;;5071811;28;20021;-41
2023/09/27 11:18:44;;;;;;;8.05;4.75;;;22.80;99.90;;;;;;5064985;28;20481;-39
2023/09/27 11:21:11;;;;;;;8.95;6.03;;;23.00;99.90;;;;;;5055733;28;20036;-39
2023/09/27 11:24:00;;;;;;;11.68;6.57;;;23.10;99.90;;;;;;5055768;28;20029;-39
2023/09/27 11:26:28;;;;;;;9.02;5.88;;;23.20;99.90;;;;;;5068074;28;20039;-37
2023/09/27 11:29:04;;;;;;;8.98;4.75;;;23.20;99.90;;;;;;5070084;28;20108;-43
2023/09/27 11:31:39;;;;;;;5.70;4.43;;;23.30;99.90;;;;;;5076229;28;20024;-46
2023/09/27 11:34:15;;;;;;;5.07;4.20;;;23.40;99.90;;;;;;5063234;28;20082;-40
2023/09/27 11:36:48;;;;;;;5.03;3.90;;;23.50;99.90;;;;;;5054439;28;20032;-52
2023/09/27 11:39:15;;;;;;;5.28;4.10;;;23.70;99.90;;;;;;5061824;28;20277;-53
2023/09/27 11:41:41;;;;;;;7.25;5.22;;;23.80;99.90;;;;;;5075431;28;20020;-50
2023/09/27 11:44:23;;;;;;;7.40;5.00;;;24.00;99.90;;;;;;5075026;28;20481;-50
2023/09/27 11:46:49;;;;;;;7.95;4.18;;;24.00;99.90;;;;;;5074593;28;20362;-52
2023/09/27 11:49:16;;;;;;;4.88;4.32;;;24.00;99.90;;;;;;5071794;28;20473;-51
2023/09/27 11:51:43;;;;;;;5.78;4.70;;;24.10;99.90;;;;;;5065175;28;20029;-49
2023/09/27 11:54:12;;;;;;;6.28;3.78;;;24.10;99.90;;;;;;5068382;28;20021;-50
2023/09/27 11:56:38;;;;;;;10.95;4.45;;;24.10;99.90;;;;;;5065859;28;20481;-50
2023/09/27 11:59:04;;;;;;;7.57;5.13;;;24.20;99.90;;;;;;5069063;28;20024;-50
2023/09/27 12:01:29;;;;;;;5.88;3.92;;;24.40;99.90;;;;;;5073545;28;20021;-50
2023/09/27 12:03:55;;;;;;;5.47;4.13;;;24.60;99.90;;;;;;5073921;28;20117;-53
2023/09/27 12:06:21;;;;;;;7.53;4.68;;;24.70;99.90;;;;;;5074617;28;20048;-52
2023/09/27 12:08:47;;;;;;;5.93;3.43;;;24.80;99.90;;;;;;5072754;28;20033;-51
2023/09/27 12:11:13;;;;;;;4.68;3.70;;;24.80;99.90;;;;;;5074801;28;20028;-52
2023/09/27 12:13:39;;;;;;;7.45;3.80;;;24.90;99.90;;;;;;5073265;28;20404;-52
2023/09/27 12:16:05;;;;;;;4.83;3.90;;;25.00;99.90;;;;;;5071864;28;20029;-51
2023/09/27 12:18:49;;;;;;;3.58;3.20;;;25.10;99.90;;;;;;5073332;28;20093;-53
2023/09/27 12:21:15;;;;;;;5.22;3.83;;;25.10;99.90;;;;;;5056778;28;20037;-52
2023/09/27 12:23:43;;;;;;;6.65;3.30;;;25.10;99.90;;;;;;5055012;28;20035;-52
2023/09/27 12:26:12;;;;;;;6.45;2.88;;;25.10;99.90;;;;;;5057113;28;20064;-50
2023/09/27 12:28:38;;;;;;;5.65;2.97;;;25.10;99.90;;;;;;5054413;28;20033;-50
2023/09/27 12:31:07;;;;;;;3.35;2.50;;;25.10;99.90;;;;;;5060441;28;20105;-53
2023/09/27 12:33:35;;;;;;;4.00;2.65;;;25.20;99.90;;;;;;5074498;28;20025;-57
2023/09/27 12:36:01;;;;;;;3.63;2.47;;;25.30;99.90;;;;;;5071224;28;20432;-54
2023/09/27 12:38:27;;;;;;;3.00;2.55;;;25.40;99.90;;;;;;5061400;28;20059;-54
2023/09/27 12:40:53;;;;;;;3.10;2.80;;;25.40;99.90;;;;;;5059522;28;20032;-53
2023/09/27 12:43:19;;;;;;;4.20;3.30;;;25.60;99.90;;;;;;5072860;28;20047;-50
2023/09/27 12:45:45;;;;;;;6.05;3.63;;;25.70;99.90;;;;;;5072738;28;20032;-51
2023/09/27 12:48:10;;;;;;;4.75;3.10;;;25.70;99.90;;;;;;5074469;28;20047;-52